Time;durP1;ratioP1;P1;durP2;ratioP2;P2;SDS_P1;SDS_P2;PMS_P1;PMS_P2;Temp;Humidity;BMP_temperature;BMP_pressure;BME280_temperature;BME280_humidity;BME280_pressure;Samples;Min_cycle;Max_cycle;Signal;HPM_P1;HPM_P2
2022/12/12 00:01:32;;;;;;;38.80;32.30;;;;;;;-0.28;86.01;100950.97;5091649;28;20024;-68
2022/12/12 00:03:58;;;;;;;39.13;29.33;;;;;;;-0.23;86.54;100951.75;5091214;28;20115;-68
2022/12/12 00:06:25;;;;;;;43.67;32.07;;;;;;;-0.42;86.53;100963.38;5072989;28;20028;-68
2022/12/12 00:08:51;;;;;;;40.50;33.63;;;;;;;-0.36;87.16;100953.69;5073040;28;20163;-68
2022/12/12 00:11:17;;;;;;;42.20;32.50;;;;;;;-0.36;86.70;100958.06;5091337;28;20140;-68
2022/12/12 00:13:43;;;;;;;39.57;33.37;;;;;;;-0.51;87.01;100959.16;5091043;28;20024;-68
2022/12/12 00:16:09;;;;;;;38.37;30.67;;;;;;;-0.55;87.35;100955.75;5072711;28;20039;-68
2022/12/12 00:18:36;;;;;;;40.67;32.87;;;;;;;-0.42;87.23;100956.41;5056530;28;20514;-68
2022/12/12 00:21:05;;;;;;;38.73;32.17;;;;;;;-0.55;87.47;100954.88;5093340;28;20116;-68
2022/12/12 00:23:31;;;;;;;42.30;31.63;;;;;;;-0.48;87.52;100951.28;5077028;28;20034;-68
2022/12/12 00:26:04;;;;;;;39.10;32.43;;;;;;;-0.52;87.08;100953.09;5076519;28;20032;-67
2022/12/12 00:28:30;;;;;;;41.73;29.93;;;;;;;-0.57;88.01;100954.03;5094524;28;20480;-67
2022/12/12 00:30:56;;;;;;;39.50;33.20;;;;;;;-0.68;87.58;100943.75;5074962;28;20055;-67
2022/12/12 00:33:21;;;;;;;39.70;30.57;;;;;;;-0.53;87.44;100958.31;5074864;28;20039;-67
2022/12/12 00:35:52;;;;;;;39.33;32.87;;;;;;;-0.62;87.35;100961.06;5074757;28;20533;-68
2022/12/12 00:38:21;;;;;;;37.83;29.17;;;;;;;-0.62;87.17;100958.47;5089145;28;20035;-68
2022/12/12 00:40:47;;;;;;;42.35;31.23;;;;;;;-0.64;87.60;100955.03;5098211;28;20019;-68
2022/12/12 00:43:14;;;;;;;39.37;31.17;;;;;;;-0.64;87.90;100968.94;5089736;28;20028;-68
2022/12/12 00:45:40;;;;;;;37.67;32.20;;;;;;;-0.76;87.46;100958.69;5096961;28;20501;-67
2022/12/12 00:48:06;;;;;;;40.40;30.63;;;;;;;-0.70;88.10;100962.06;5059357;28;20030;-68
2022/12/12 00:50:33;;;;;;;37.37;28.50;;;;;;;-0.75;87.48;100956.03;5093758;28;20034;-68
2022/12/12 00:52:59;;;;;;;38.67;30.37;;;;;;;-0.75;87.85;100955.19;5094401;28;20030;-68
2022/12/12 00:55:25;;;;;;;39.93;33.00;;;;;;;-0.77;87.86;100951.72;5094566;28;20024;-68
2022/12/12 00:57:51;;;;;;;38.93;28.90;;;;;;;-0.69;87.39;100970.75;5093972;28;20027;-67
2022/12/12 01:00:20;;;;;;;41.33;29.50;;;;;;;-0.78;88.33;100969.16;5094415;28;20372;-67
2022/12/12 01:02:47;;;;;;;38.67;29.77;;;;;;;-0.81;87.98;100970.94;5076512;28;20048;-68
2022/12/12 01:05:13;;;;;;;41.43;31.40;;;;;;;-0.87;88.57;100969.28;5076050;28;20035;-68
2022/12/12 01:07:41;;;;;;;39.60;30.60;;;;;;;-0.86;88.84;100968.38;5076269;28;20016;-68
2022/12/12 01:10:08;;;;;;;42.30;33.07;;;;;;;-0.95;88.67;100968.50;5094509;28;20024;-68
2022/12/12 01:12:34;;;;;;;40.60;29.43;;;;;;;-0.93;88.59;100969.38;5075702;28;20398;-67
2022/12/12 01:15:00;;;;;;;40.10;29.67;;;;;;;-0.92;88.38;100973.69;5075974;28;20020;-68
2022/12/12 01:17:26;;;;;;;40.37;31.07;;;;;;;-0.95;88.26;100987.66;5076207;28;20028;-68
2022/12/12 01:19:51;;;;;;;37.53;29.40;;;;;;;-0.93;88.70;100987.63;5076346;28;20081;-68
2022/12/12 01:22:16;;;;;;;40.00;29.30;;;;;;;-0.92;88.74;100991.97;5076081;28;20179;-68
2022/12/12 01:24:44;;;;;;;40.83;29.73;;;;;;;-0.95;88.45;100992.88;5076095;28;20028;-68
2022/12/12 01:27:10;;;;;;;43.47;31.33;;;;;;;-1.07;88.08;100986.97;5074914;28;20081;-68
2022/12/12 01:29:35;;;;;;;39.00;30.87;;;;;;;-1.00;88.95;100988.59;5094289;28;20472;-68
2022/12/12 01:32:01;;;;;;;39.57;31.33;;;;;;;-1.01;88.67;101005.16;5091490;28;20436;-67
2022/12/12 01:34:26;;;;;;;40.50;31.60;;;;;;;-1.08;88.65;100995.69;5094032;28;20044;-67
2022/12/12 01:36:54;;;;;;;46.70;32.30;;;;;;;-1.09;88.41;101004.38;5094110;28;20486;-68
2022/12/12 01:39:20;;;;;;;44.60;31.83;;;;;;;-1.12;88.87;101007.03;5075835;28;20028;-68
2022/12/12 01:41:46;;;;;;;41.80;31.67;;;;;;;-1.09;88.52;101010.44;5075932;28;20053;-67
2022/12/12 01:44:41;;;;;;;43.93;30.30;;;;;;;-1.05;88.83;101008.69;5058371;28;20028;-67
2022/12/12 01:47:10;;;;;;;36.90;28.63;;;;;;;-1.15;88.74;101008.81;5093348;28;20603;-67
2022/12/12 01:49:36;;;;;;;44.20;30.40;;;;;;;-1.19;88.44;101008.84;5093608;28;20067;-68
2022/12/12 01:52:18;;;;;;;38.43;30.13;;;;;;;-1.12;88.15;101015.72;5093418;28;20495;-68
2022/12/12 01:54:47;;;;;;;40.17;29.67;;;;;;;-1.18;88.21;101015.78;5093560;28;20055;-68
2022/12/12 01:57:25;;;;;;;42.85;30.50;;;;;;;-1.22;88.54;101019.31;5093192;28;20393;-67
2022/12/12 01:59:53;;;;;;;42.60;30.73;;;;;;;-1.26;87.98;101013.28;5075529;28;20032;-68
2022/12/12 02:02:19;;;;;;;40.23;30.20;;;;;;;-1.23;88.74;101018.47;5093215;28;20028;-68
2022/12/12 02:04:44;;;;;;;41.80;29.30;;;;;;;-1.31;88.45;101007.25;5092999;28;20085;-69
2022/12/12 02:07:10;;;;;;;40.63;30.30;;;;;;;-1.36;88.75;101019.47;5092865;28;20517;-68
2022/12/12 02:09:36;;;;;;;43.77;30.17;;;;;;;-1.33;88.66;101013.38;5093176;28;20020;-67
2022/12/12 02:12:02;;;;;;;43.37;30.87;;;;;;;-1.41;88.71;101022.16;5074791;28;20364;-67
2022/12/12 02:14:32;;;;;;;39.77;30.00;;;;;;;-1.44;88.48;101022.19;5092622;28;20156;-67
2022/12/12 02:17:08;;;;;;;42.03;30.42;;;;;;;-1.42;88.64;101024.75;5092886;28;20035;-68
2022/12/12 02:20:00;;;;;;;40.60;29.93;;;;;;;-1.39;88.29;101025.59;5093309;28;20047;-68
2022/12/12 02:23:03;;;;;;;45.00;31.67;;;;;;;-1.41;88.58;101024.75;5092164;28;20016;-67
2022/12/12 02:25:34;;;;;;;47.40;30.57;;;;;;;-1.48;88.28;101028.31;5092837;28;20032;-67
2022/12/12 02:28:09;;;;;;;43.77;30.87;;;;;;;-1.46;89.12;101030.91;5074354;28;20555;-68
2022/12/12 02:30:35;;;;;;;42.63;31.03;;;;;;;-1.50;88.59;101031.81;5092878;28;20119;-68
2022/12/12 02:33:09;;;;;;;43.63;31.53;;;;;;;-1.49;88.25;101033.56;5092385;28;20115;-67
2022/12/12 02:35:38;;;;;;;43.30;30.77;;;;;;;-1.62;89.19;101032.78;5092640;28;20062;-67
2022/12/12 02:38:17;;;;;;;41.60;31.20;;;;;;;-1.66;88.91;101028.50;5092749;28;20063;-68
2022/12/12 02:40:49;;;;;;;41.83;30.30;;;;;;;-1.56;88.89;101032.72;5092666;28;20475;-68
2022/12/12 02:43:41;;;;;;;43.67;30.33;;;;;;;-1.62;88.29;101031.06;5091598;28;20055;-68
2022/12/12 02:46:16;;;;;;;42.03;30.73;;;;;;;-1.61;88.60;101030.19;5053997;28;20135;-67
2022/12/12 02:48:57;;;;;;;44.27;30.97;;;;;;;-1.62;89.13;101036.28;5072262;28;20035;-68
2022/12/12 02:51:24;;;;;;;41.20;30.02;;;;;;;-1.68;88.87;101031.09;5072032;28;20108;-68
2022/12/12 02:53:49;;;;;;;44.20;30.30;;;;;;;-1.69;88.71;101032.00;5092072;28;20019;-67
2022/12/12 02:56:48;;;;;;;48.67;31.97;;;;;;;-1.69;88.93;101032.00;5092011;28;20098;-67
2022/12/12 02:59:21;;;;;;;41.93;31.20;;;;;;;-1.76;88.28;101035.56;5092035;28;20028;-67
2022/12/12 03:02:20;;;;;;;40.70;31.00;;;;;;;-1.69;88.38;101025.91;5075859;28;20031;-67
2022/12/12 03:08:10;;;;;;;45.30;28.67;;;;;;;-1.78;87.92;101032.09;5091994;28;20035;-67
2022/12/12 03:10:41;;;;;;;43.50;30.20;;;;;;;-1.82;88.35;101027.78;5092007;28;20031;-68
2022/12/12 03:13:25;;;;;;;41.87;30.80;;;;;;;-1.86;88.59;101028.69;5072806;28;20119;-68
2022/12/12 03:15:57;;;;;;;44.73;30.80;;;;;;;-1.93;88.70;101021.81;5091625;28;20432;-68
2022/12/12 03:18:37;;;;;;;44.77;31.97;;;;;;;-1.96;88.41;101021.84;5091248;28;20030;-68
2022/12/12 03:21:14;;;;;;;42.30;30.42;;;;;;;-2.00;88.80;101013.19;5090240;28;20032;-68
2022/12/12 03:23:45;;;;;;;43.80;30.63;;;;;;;-2.11;88.25;101015.88;5090703;28;20102;-68
2022/12/12 03:26:16;;;;;;;42.43;31.63;;;;;;;-2.07;88.74;101020.16;5080188;28;20106;-68
2022/12/12 03:28:56;;;;;;;44.67;30.63;;;;;;;-2.09;88.56;101016.75;5056187;28;20027;-67
2022/12/12 03:31:27;;;;;;;42.97;30.08;;;;;;;-2.12;88.57;101015.88;5091613;28;20028;-68
2022/12/12 03:34:01;;;;;;;46.30;30.47;;;;;;;-2.18;89.08;101011.56;5085041;28;20027;-68
2022/12/12 03:36:34;;;;;;;42.90;29.67;;;;;;;-2.26;89.00;101009.91;5091468;28;20063;-67
2022/12/12 03:39:05;;;;;;;43.57;30.10;;;;;;;-2.22;89.55;101009.88;5090923;28;20031;-67
2022/12/12 03:41:39;;;;;;;45.97;31.77;;;;;;;-2.28;88.64;101021.22;5093788;28;20096;-68
2022/12/12 03:44:14;;;;;;;44.43;30.93;;;;;;;-2.22;88.73;101017.69;5090318;28;20471;-68
2022/12/12 03:46:47;;;;;;;43.53;31.17;;;;;;;-2.25;89.04;101028.16;5089725;28;20044;-67
2022/12/12 03:49:16;;;;;;;47.67;31.70;;;;;;;-2.28;89.06;101022.97;5072731;28;20023;-67
2022/12/12 03:51:49;;;;;;;44.13;31.47;;;;;;;-2.36;88.98;101022.16;5072888;28;20027;-67
2022/12/12 03:54:29;;;;;;;41.70;29.93;;;;;;;-2.40;89.16;101010.03;5090342;28;20153;-67
2022/12/12 03:57:05;;;;;;;45.10;32.00;;;;;;;-2.40;88.88;101020.44;5083126;28;20074;-67
2022/12/12 03:59:43;;;;;;;44.70;29.30;;;;;;;-2.43;88.69;101012.66;5095377;28;20020;-68
2022/12/12 04:02:18;;;;;;;42.97;28.47;;;;;;;-2.37;88.84;101030.84;5095344;28;20020;-68
2022/12/12 04:05:19;;;;;;;44.80;30.53;;;;;;;-2.34;88.88;101026.47;5095127;28;20016;-67
2022/12/12 04:07:56;;;;;;;40.63;28.13;;;;;;;-2.37;88.40;101026.50;5034332;28;20032;-69
2022/12/12 04:13:19;;;;;;;43.63;30.33;;;;;;;-2.44;88.19;101026.53;5090917;28;20035;-67
2022/12/12 04:16:14;;;;;;;44.13;28.40;;;;;;;-2.35;88.90;101031.72;5095654;28;20020;-67
2022/12/12 04:19:01;;;;;;;46.73;29.33;;;;;;;-2.40;88.78;101017.84;5092754;28;20036;-67
2022/12/12 04:24:36;;;;;;;42.60;28.77;;;;;;;-2.32;87.81;101031.69;5095440;28;20027;-68
2022/12/12 04:27:19;;;;;;;43.50;27.93;;;;;;;-2.35;87.89;101032.56;5094818;28;20027;-68
2022/12/12 04:29:50;;;;;;;41.80;28.33;;;;;;;-2.44;87.22;101027.44;5095543;28;20028;-68
2022/12/12 04:32:28;;;;;;;40.80;28.13;;;;;;;-2.39;87.26;101043.00;5077169;28;20024;-67
2022/12/12 04:35:02;;;;;;;43.30;29.20;;;;;;;-2.40;87.80;101044.75;5095192;28;20028;-68
2022/12/12 04:37:36;;;;;;;43.03;28.80;;;;;;;-2.37;87.41;101046.47;5094882;28;20503;-68
2022/12/12 04:40:06;;;;;;;43.83;29.17;;;;;;;-2.48;86.53;101051.72;5094977;28;20041;-68
2022/12/12 04:42:44;;;;;;;40.90;28.02;;;;;;;-2.38;86.46;101056.03;5094115;28;20020;-67
2022/12/12 04:45:16;;;;;;;46.03;29.33;;;;;;;-2.43;86.57;101055.19;5094906;28;20031;-67
2022/12/12 04:47:45;;;;;;;43.73;29.67;;;;;;;-2.53;86.37;101059.59;5043449;28;20047;-68
2022/12/12 04:50:12;;;;;;;42.20;27.80;;;;;;;-2.52;86.76;101058.72;5094481;28;20031;-68
2022/12/12 04:52:40;;;;;;;39.20;27.67;;;;;;;-2.63;86.39;101055.28;5074871;28;20519;-67
2022/12/12 04:55:37;;;;;;;40.13;27.63;;;;;;;-2.54;87.31;101051.78;5079460;28;20338;-67
2022/12/12 04:58:04;;;;;;;42.00;28.57;;;;;;;-2.62;86.86;101054.44;5092583;28;20047;-68
2022/12/12 05:00:38;;;;;;;44.17;30.30;;;;;;;-2.65;86.43;101062.25;5094557;28;20122;-67
2022/12/12 05:03:19;;;;;;;42.93;28.23;;;;;;;-2.57;87.06;101054.41;5094324;28;20021;-68
2022/12/12 05:05:56;;;;;;;40.43;27.67;;;;;;;-2.58;86.67;101050.94;5094725;28;20031;-67
2022/12/12 05:08:29;;;;;;;45.93;28.20;;;;;;;-2.65;86.59;101061.38;5094512;28;20035;-68
2022/12/12 05:10:59;;;;;;;44.33;29.87;;;;;;;-2.71;86.59;101056.22;5094399;28;20024;-68
2022/12/12 05:13:31;;;;;;;42.53;28.90;;;;;;;-2.71;86.29;101043.19;5075879;28;20542;-68
2022/12/12 05:15:59;;;;;;;44.73;28.33;;;;;;;-2.67;86.69;101051.00;5094277;28;20112;-67
2022/12/12 05:18:25;;;;;;;39.70;29.40;;;;;;;-2.71;86.59;101056.22;5094047;28;20089;-68
2022/12/12 05:20:50;;;;;;;41.40;28.30;;;;;;;-2.69;86.35;101063.16;5094289;28;20023;-67
2022/12/12 05:23:16;;;;;;;43.67;29.60;;;;;;;-2.82;86.38;101059.75;5093872;28;20028;-68
2022/12/12 05:25:46;;;;;;;40.27;27.90;;;;;;;-2.76;86.54;101066.66;5076120;28;20031;-67
2022/12/12 05:28:12;;;;;;;;;;;;;;;-2.60;86.75;101062.22;5076008;28;20405;-67
2022/12/12 05:30:38;;;;;;;40.43;26.70;;;;;;;-2.79;86.22;101059.72;5093922;28;19916;-68
2022/12/12 05:33:04;;;;;;;43.37;28.30;;;;;;;-2.80;86.17;101060.59;5093947;28;20471;-67
2022/12/12 05:35:30;;;;;;;42.30;28.07;;;;;;;-2.83;86.59;101062.34;5094067;28;20433;-67
2022/12/12 05:37:56;;;;;;;37.60;26.03;;;;;;;-2.86;86.71;101060.63;5093404;28;20036;-67
2022/12/12 05:40:22;;;;;;;42.40;27.20;;;;;;;-2.85;86.89;101064.09;5093682;28;20100;-68
2022/12/12 05:42:47;;;;;;;44.47;29.10;;;;;;;-2.87;86.74;101063.25;5075193;28;20024;-68
2022/12/12 05:45:13;;;;;;;44.00;28.63;;;;;;;-2.88;87.08;101067.59;5093553;28;20095;-67
2022/12/12 05:47:39;;;;;;;46.37;30.10;;;;;;;-2.89;86.81;101071.03;5058319;28;20143;-68
2022/12/12 05:50:05;;;;;;;45.73;28.63;;;;;;;-2.93;86.99;101069.34;5093420;28;20069;-67
2022/12/12 05:52:31;;;;;;;42.67;27.80;;;;;;;-2.96;87.27;101071.94;5092568;28;20028;-67
2022/12/12 05:54:56;;;;;;;44.07;29.00;;;;;;;-3.04;87.57;101071.97;5092562;28;20089;-68
2022/12/12 05:57:22;;;;;;;47.13;28.70;;;;;;;-3.13;87.71;101072.00;5092130;28;20038;-67
2022/12/12 05:59:48;;;;;;;42.73;28.17;;;;;;;-3.08;87.90;101067.66;5094706;28;20056;-68
2022/12/12 06:02:14;;;;;;;42.37;27.03;;;;;;;-3.11;87.75;101074.63;5092500;28;20110;-67
2022/12/12 06:04:40;;;;;;;40.60;27.33;;;;;;;-3.10;87.79;101079.78;5095700;28;20501;-68
2022/12/12 06:07:07;;;;;;;44.93;27.33;;;;;;;-3.07;87.86;101082.38;5091797;28;20032;-67
2022/12/12 06:09:32;;;;;;;42.00;28.20;;;;;;;-3.09;87.58;101083.25;5093453;28;20444;-68
2022/12/12 06:11:58;;;;;;;45.30;28.10;;;;;;;-3.10;87.43;101087.59;5095853;28;20027;-68
2022/12/12 06:14:24;;;;;;;44.17;28.00;;;;;;;-3.14;87.53;101088.50;5045398;28;20035;-68
2022/12/12 06:16:49;;;;;;;44.97;27.03;;;;;;;-3.13;87.17;101090.22;5072573;28;20082;-68
2022/12/12 06:19:19;;;;;;;43.70;27.73;;;;;;;-3.17;87.27;101087.66;5073730;28;20433;-68
2022/12/12 06:21:45;;;;;;;46.50;27.27;;;;;;;-3.13;87.37;101089.34;5075423;28;20437;-67
2022/12/12 06:24:11;;;;;;;42.50;26.80;;;;;;;-3.20;87.43;101094.56;5078654;28;20024;-68
2022/12/12 06:26:36;;;;;;;45.83;27.57;;;;;;;-3.24;87.65;101091.97;5074753;28;20032;-68
2022/12/12 06:29:04;;;;;;;45.13;27.73;;;;;;;-3.29;87.51;101086.81;5090025;28;20395;-68
2022/12/12 06:31:30;;;;;;;45.53;27.07;;;;;;;-3.34;87.70;101093.72;5095249;28;20035;-67
2022/12/12 06:33:56;;;;;;;44.90;27.80;;;;;;;-3.34;87.75;101098.06;5055654;28;20024;-68
2022/12/12 06:36:23;;;;;;;42.87;26.57;;;;;;;-3.38;87.87;101097.22;5059759;28;20024;-68
2022/12/12 06:38:50;;;;;;;45.43;28.10;;;;;;;-3.39;88.09;101081.63;5092353;28;20433;-67
2022/12/12 06:41:16;;;;;;;41.83;26.87;;;;;;;-3.36;87.93;101089.41;5075152;28;20016;-68
2022/12/12 06:43:42;;;;;;;43.47;26.90;;;;;;;-3.37;87.90;101085.09;5092192;28;20478;-67
2022/12/12 06:46:12;;;;;;;43.83;26.93;;;;;;;-3.45;88.11;101092.88;5041298;28;20020;-67
2022/12/12 06:48:38;;;;;;;41.97;25.83;;;;;;;-3.44;88.06;101099.84;5092045;28;20249;-67
2022/12/12 06:51:08;;;;;;;45.73;26.97;;;;;;;-3.48;88.03;101098.94;5092181;28;20169;-67
2022/12/12 06:53:34;;;;;;;44.70;25.87;;;;;;;-3.53;88.28;101097.22;5092273;28;20046;-67
2022/12/12 06:56:08;;;;;;;40.87;26.50;;;;;;;-3.54;88.65;101108.50;5092290;28;20098;-67
2022/12/12 06:58:34;;;;;;;46.90;26.77;;;;;;;-3.52;88.36;101104.19;5091463;28;20539;-67
2022/12/12 07:01:00;;;;;;;49.30;26.27;;;;;;;-3.55;88.41;101092.03;5092342;28;20035;-67
2022/12/12 07:03:28;;;;;;;45.90;27.33;;;;;;;-3.58;88.62;101091.19;5091616;28;20020;-67
2022/12/12 07:05:54;;;;;;;46.43;27.20;;;;;;;-3.56;88.59;101108.53;5092181;28;20040;-68
2022/12/12 07:08:21;;;;;;;43.07;27.80;;;;;;;-3.58;88.48;101110.25;5092171;28;20027;-68
2022/12/12 07:10:47;;;;;;;48.00;27.17;;;;;;;-3.60;88.56;101111.09;5092280;28;20597;-67
2022/12/12 07:13:13;;;;;;;47.03;26.10;;;;;;;-3.56;88.62;101112.81;5073678;28;20103;-67
2022/12/12 07:15:47;;;;;;;45.20;26.70;;;;;;;-3.53;89.12;101113.72;5071928;28;20161;-67
2022/12/12 07:18:14;;;;;;;45.73;26.40;;;;;;;-3.58;88.63;101119.78;5093159;28;20112;-68
2022/12/12 07:20:41;;;;;;;44.03;26.90;;;;;;;-3.56;88.58;101124.13;5088640;28;20035;-68
2022/12/12 07:23:07;;;;;;;43.33;26.00;;;;;;;-3.56;88.33;101124.13;5091250;28;20020;-67
2022/12/12 07:25:32;;;;;;;38.97;25.53;;;;;;;-3.60;88.24;101124.97;5091760;28;20057;-68
2022/12/12 07:27:58;;;;;;;44.90;27.23;;;;;;;-3.64;88.18;101117.19;5057125;28;20125;-68
2022/12/12 07:30:23;;;;;;;47.90;27.87;;;;;;;-3.61;88.23;101132.78;5089784;28;20145;-68
2022/12/12 07:32:50;;;;;;;45.27;27.50;;;;;;;-3.68;88.41;101132.78;5089759;28;20032;-67
2022/12/12 07:35:16;;;;;;;47.60;28.13;;;;;;;-3.60;88.36;101130.16;5073507;28;20020;-67
2022/12/12 07:37:44;;;;;;;43.33;26.57;;;;;;;-3.56;88.13;101136.22;5072921;28;20495;-68
2022/12/12 07:40:12;;;;;;;45.27;26.83;;;;;;;-3.53;88.02;101136.22;5072854;28;20514;-68
2022/12/12 07:42:37;;;;;;;44.90;25.80;;;;;;;-3.50;88.01;101138.81;5072453;28;20020;-68
2022/12/12 07:45:06;;;;;;;43.77;26.33;;;;;;;-3.57;87.90;101135.34;5073596;28;20039;-68
2022/12/12 07:47:32;;;;;;;51.08;25.42;;;;;;;-3.52;87.69;101133.63;5094231;28;20376;-68
2022/12/12 07:49:58;;;;;;;45.53;26.70;;;;;;;-3.47;87.70;101147.50;5073305;28;20088;-67
2022/12/12 07:52:23;;;;;;;42.80;25.70;;;;;;;-3.51;87.30;101150.94;5089884;28;20036;-68
2022/12/12 07:54:51;;;;;;;46.60;25.60;;;;;;;-3.45;87.25;101152.69;5091207;28;20035;-68
2022/12/12 07:57:19;;;;;;;43.47;25.50;;;;;;;-3.46;86.70;101143.16;5089800;28;20450;-67
2022/12/12 07:59:44;;;;;;;43.93;26.23;;;;;;;-3.46;86.51;101149.22;5056900;28;20119;-68
2022/12/12 08:02:10;;;;;;;42.47;25.83;;;;;;;-3.44;86.90;101152.69;5075903;28;20108;-68
2022/12/12 08:04:38;;;;;;;42.40;24.73;;;;;;;-3.46;86.47;101158.75;5089686;28;20028;-68
2022/12/12 08:07:04;;;;;;;45.73;26.43;;;;;;;-3.43;86.87;101176.97;5088153;28;20491;-67
2022/12/12 08:09:29;;;;;;;44.77;25.03;;;;;;;-3.42;86.71;101174.34;5090340;28;20062;-68
2022/12/12 08:11:57;;;;;;;45.23;25.93;;;;;;;-3.39;86.72;101167.41;5056183;28;20032;-67
2022/12/12 08:14:23;;;;;;;43.80;25.53;;;;;;;-3.44;86.37;101170.91;5072482;28;20395;-67
2022/12/12 08:16:49;;;;;;;41.07;26.53;;;;;;;-3.38;86.92;101174.34;5071241;28;20058;-68
2022/12/12 08:19:14;;;;;;;43.00;24.80;;;;;;;-3.37;86.77;101176.94;5091024;28;20028;-68
2022/12/12 08:21:40;;;;;;;47.27;26.27;;;;;;;-3.34;86.86;101176.94;5072751;28;20032;-67
2022/12/12 08:24:06;;;;;;;53.67;26.70;;;;;;;-3.32;86.52;101177.81;5072319;28;20028;-68
2022/12/12 08:26:31;;;;;;;43.93;25.07;;;;;;;-3.34;86.47;101171.75;5090121;28;20108;-68
2022/12/12 08:28:57;;;;;;;44.87;25.87;;;;;;;-3.34;86.79;101174.34;5055002;28;20048;-68
2022/12/12 08:31:23;;;;;;;45.57;25.33;;;;;;;-3.30;86.70;101176.06;5071971;28;20074;-68
2022/12/12 08:33:49;;;;;;;47.53;25.93;;;;;;;-3.36;86.34;101170.00;5063080;28;20045;-68
2022/12/12 08:36:29;;;;;;;46.50;26.47;;;;;;;-3.24;86.65;101183.84;5090893;28;20080;-68
2022/12/12 08:39:02;;;;;;;48.30;26.10;;;;;;;-3.28;86.69;101181.28;5092512;28;20032;-68
2022/12/12 08:41:28;;;;;;;43.00;25.37;;;;;;;-3.31;86.98;101178.69;5092905;28;20028;-68
2022/12/12 08:43:54;;;;;;;43.60;24.63;;;;;;;-3.27;87.01;101180.41;5075404;28;20035;-67
2022/12/12 08:46:20;;;;;;;50.57;26.60;;;;;;;-3.27;87.24;101180.41;5093762;28;20043;-68
2022/12/12 08:48:47;;;;;;;45.37;26.33;;;;;;;-3.22;87.54;101186.47;5056186;28;20512;-68
2022/12/12 08:51:17;;;;;;;43.83;24.60;;;;;;;-3.16;87.57;101178.66;5092057;28;20444;-67
2022/12/12 08:53:52;;;;;;;51.25;24.88;;;;;;;-3.12;87.55;101187.31;5095738;28;20023;-68
2022/12/12 08:56:19;;;;;;;48.53;26.90;;;;;;;-3.14;87.62;101183.88;5095510;28;20110;-67
2022/12/12 08:58:45;;;;;;;43.73;25.53;;;;;;;-3.06;87.37;101192.50;5093551;28;20111;-68
2022/12/12 09:01:22;;;;;;;41.30;25.00;;;;;;;-3.04;87.35;101190.78;5072888;28;20020;-68
2022/12/12 09:03:49;;;;;;;40.27;24.50;;;;;;;-3.06;87.38;101195.09;5092574;28;20031;-68
2022/12/12 09:06:15;;;;;;;46.33;25.87;;;;;;;-3.06;87.53;101196.00;5090198;28;20059;-68
2022/12/12 09:08:41;;;;;;;47.23;25.60;;;;;;;-3.03;87.52;101189.91;5092168;28;20058;-68
2022/12/12 09:11:09;;;;;;;46.27;26.07;;;;;;;-2.98;87.93;101190.75;5074784;28;20616;-68
2022/12/12 09:13:35;;;;;;;46.47;25.73;;;;;;;-3.03;88.04;101177.78;5093237;28;20114;-68
2022/12/12 09:16:00;;;;;;;43.07;25.40;;;;;;;-2.96;87.94;101189.03;5075145;28;20099;-67
2022/12/12 09:18:26;;;;;;;45.37;24.80;;;;;;;-2.92;88.06;101195.94;5093871;28;20043;-68
2022/12/12 09:20:54;;;;;;;45.50;24.83;;;;;;;-2.86;87.67;101200.28;5074878;28;20578;-68
2022/12/12 09:23:21;;;;;;;44.83;24.90;;;;;;;-2.80;87.91;101195.91;5073705;28;20052;-67
2022/12/12 09:25:46;;;;;;;41.93;24.57;;;;;;;-2.75;87.64;101198.53;5075203;28;20024;-68
2022/12/12 09:28:14;;;;;;;45.10;25.57;;;;;;;-2.71;87.19;101195.03;5073351;28;20093;-68
2022/12/12 09:30:40;;;;;;;46.77;26.77;;;;;;;-2.74;87.62;101200.25;5074730;28;20028;-67
2022/12/12 09:33:06;;;;;;;40.07;24.03;;;;;;;-2.62;87.18;101204.53;5095364;28;20020;-67
2022/12/12 09:35:32;;;;;;;47.33;25.87;;;;;;;-2.58;87.63;101195.88;5091331;28;20051;-67
2022/12/12 09:37:57;;;;;;;40.87;24.87;;;;;;;-2.52;87.28;101198.44;5092352;28;20027;-68
2022/12/12 09:40:33;;;;;;;42.33;24.83;;;;;;;-2.45;87.29;101196.69;5074906;28;20024;-68
2022/12/12 09:42:59;;;;;;;44.20;25.03;;;;;;;-2.37;87.22;101195.78;5091457;28;20050;-67
2022/12/12 09:45:25;;;;;;;40.83;24.83;;;;;;;-2.25;86.42;101192.25;5093448;28;20024;-67
2022/12/12 09:47:58;;;;;;;45.20;26.17;;;;;;;-2.10;86.14;101189.56;5073801;28;20036;-68
2022/12/12 09:50:37;;;;;;;41.43;24.60;;;;;;;-1.97;85.98;101194.69;5093129;28;20157;-67
2022/12/12 09:53:08;;;;;;;40.43;23.97;;;;;;;-1.85;85.06;101197.25;5091774;28;20028;-67
2022/12/12 09:55:36;;;;;;;40.93;24.63;;;;;;;-1.79;84.72;101181.56;5093168;28;20020;-68
2022/12/12 09:58:25;;;;;;;43.47;24.77;;;;;;;-1.60;84.92;101183.16;5092325;28;20042;-68
2022/12/12 10:01:10;;;;;;;38.13;22.43;;;;;;;-1.58;83.84;101182.28;5092665;28;20020;-68
2022/12/12 10:04:11;;;;;;;43.20;23.63;;;;;;;-1.29;83.53;101177.69;5092824;28;20024;-68
2022/12/12 10:06:49;;;;;;;39.87;22.43;;;;;;;-1.16;83.01;101179.28;5092522;28;20099;-67
2022/12/12 10:09:36;;;;;;;40.50;25.40;;;;;;;-1.12;82.64;101190.56;5093108;28;20047;-67
2022/12/12 10:12:04;;;;;;;38.37;25.30;;;;;;;-1.13;83.11;101186.22;5072442;28;20059;-68
2022/12/12 10:14:45;;;;;;;41.30;25.43;;;;;;;-1.12;82.31;101185.34;5055148;28;20433;-67
2022/12/12 10:17:15;;;;;;;39.50;25.13;;;;;;;-1.11;82.28;101191.44;5072720;28;20020;-67
2022/12/12 10:19:51;;;;;;;39.77;27.87;;;;;;;-0.95;82.15;101183.44;5054988;28;20058;-68
2022/12/12 10:22:29;;;;;;;36.63;24.93;;;;;;;-0.50;81.15;101185.53;5074670;28;20546;-67
2022/12/12 10:25:02;;;;;;;39.50;24.20;;;;;;;-0.13;79.51;101180.72;5093122;28;20028;-68
2022/12/12 10:27:28;;;;;;;39.90;25.43;;;;;;;0.06;77.55;101175.22;5092493;28;20097;-68
2022/12/12 10:29:55;;;;;;;35.30;23.70;;;;;;;0.51;77.00;101176.28;5092565;28;20032;-68
2022/12/12 10:32:37;;;;;;;38.83;23.00;;;;;;;0.98;75.42;101176.34;5092457;28;20024;-68
2022/12/12 10:35:21;;;;;;;36.00;23.37;;;;;;;1.42;73.93;101182.50;5072103;28;20364;-67
2022/12/12 10:38:23;;;;;;;33.30;21.60;;;;;;;2.02;73.37;101176.84;5054610;28;20028;-68
2022/12/12 10:41:02;;;;;;;31.63;20.63;;;;;;;2.45;70.57;101165.34;5072426;28;20046;-68
2022/12/12 10:43:59;;;;;;;30.70;20.33;;;;;;;3.14;71.03;101161.78;5076616;28;20379;-68
2022/12/12 10:46:28;;;;;;;27.70;18.67;;;;;;;3.44;66.17;101171.50;5092421;28;20028;-69
2022/12/12 10:48:55;;;;;;;28.27;18.67;;;;;;;3.55;64.67;101170.28;5092225;28;20116;-68
2022/12/12 10:51:23;;;;;;;31.48;18.98;;;;;;;3.52;65.85;101166.91;5057958;28;20391;-68
2022/12/12 10:53:48;;;;;;;26.08;17.42;;;;;;;3.56;65.99;101166.78;5075764;28;20096;-68
2022/12/12 10:56:27;;;;;;;28.50;18.42;;;;;;;3.85;65.56;101167.66;5091824;28;20060;-68
2022/12/12 10:58:57;;;;;;;29.02;19.08;;;;;;;3.57;63.29;101172.88;5091310;28;20032;-69
2022/12/12 11:01:25;;;;;;;;;;;;;;;4.15;71.41;101163.25;5092873;28;20020;-68
2022/12/12 11:03:53;;;;;;;32.00;18.95;;;;;;;3.67;62.79;101178.72;5073805;28;19908;-68
2022/12/12 11:06:26;;;;;;;30.40;19.40;;;;;;;3.24;64.54;101175.56;5091749;28;20046;-68
2022/12/12 11:08:55;;;;;;;27.73;17.70;;;;;;;3.03;63.41;101166.50;5092035;28;20032;-68
2022/12/12 11:11:26;;;;;;;30.63;19.92;;;;;;;2.96;64.86;101159.66;5073878;28;20035;-68
2022/12/12 11:13:59;;;;;;;28.08;19.40;;;;;;;2.73;64.47;101166.38;5091584;28;20071;-68
2022/12/12 11:16:28;;;;;;;28.25;18.70;;;;;;;2.81;64.03;101162.72;5091679;28;20024;-68
2022/12/12 11:19:00;;;;;;;33.78;20.17;;;;;;;2.81;65.23;101157.44;5090791;28;20055;-68
2022/12/12 11:21:27;;;;;;;28.08;17.75;;;;;;;2.95;63.62;101158.81;5073781;28;20040;-68
2022/12/12 11:23:56;;;;;;;27.17;18.38;;;;;;;2.89;63.31;101152.88;5091412;28;20059;-68
2022/12/12 11:26:23;;;;;;;25.75;17.85;;;;;;;3.12;62.63;101165.41;5091673;28;20032;-69
2022/12/12 11:29:01;;;;;;;26.67;18.55;;;;;;;3.15;63.69;101162.69;5091213;28;20032;-68
2022/12/12 11:31:32;;;;;;;30.23;18.20;;;;;;;2.92;62.56;101165.91;5091723;28;20085;-67
2022/12/12 11:34:05;;;;;;;25.98;18.67;;;;;;;2.87;62.60;101159.91;5073567;28;20390;-68
2022/12/12 11:36:36;;;;;;;28.17;17.60;;;;;;;2.91;62.53;101157.19;5091760;28;20383;-68